Time;durP1;ratioP1;P1;durP2;ratioP2;P2;SDS_P1;SDS_P2;PMS_P1;PMS_P2;Temp;Humidity;BMP_temperature;BMP_pressure;BME280_temperature;BME280_humidity;BME280_pressure;Samples;Min_cycle;Max_cycle;Signal;HPM_P1;HPM_P2
2022/12/27 00:00:07;;;;;;;;;;;3.80;99.90;;;;;;5066504;28;19928;-80
2022/12/27 00:02:40;;;;;;;;;;;3.90;99.90;;;;;;5068557;28;19932;-80
2022/12/27 00:05:08;;;;;;;;;;;3.90;99.90;;;;;;5075280;28;19928;-80
2022/12/27 00:07:35;;;;;;;;;;;3.90;99.90;;;;;;5079006;28;19939;-80
2022/12/27 00:10:03;;;;;;;;;;;3.90;99.90;;;;;;5076640;28;19928;-79
2022/12/27 00:12:30;;;;;;;;;;;3.90;99.90;;;;;;5092127;28;19924;-79
2022/12/27 00:14:58;;;;;;;;;;;4.00;99.90;;;;;;5097386;28;19931;-80
2022/12/27 00:17:24;;;;;;;;;;;4.00;99.90;;;;;;5068097;28;20441;-80
2022/12/27 00:19:51;;;;;;;;;;;4.00;99.90;;;;;;5069171;28;19929;-79
2022/12/27 00:22:18;;;;;;;;;;;4.00;99.90;;;;;;5056434;28;19928;-79
2022/12/27 00:24:46;;;;;;;;;;;4.00;99.90;;;;;;5075904;28;19932;-79
2022/12/27 00:27:13;;;;;;;;;;;4.10;99.90;;;;;;5082301;28;19928;-79
2022/12/27 00:29:40;;;;;;;;;;;4.10;99.90;;;;;;5089981;28;19928;-79
2022/12/27 00:32:08;;;;;;;;;;;4.10;99.90;;;;;;5096622;28;19990;-80
2022/12/27 00:34:40;;;;;;;;;;;4.10;99.90;;;;;;5110208;28;19912;-79
2022/12/27 00:37:07;;;;;;;;;;;4.10;99.90;;;;;;5094385;28;19912;-80
2022/12/27 00:39:34;;;;;;;;;;;4.10;99.90;;;;;;5095064;28;20435;-80
2022/12/27 00:42:07;;;;;;;;;;;4.10;99.90;;;;;;5103637;28;19912;-80
2022/12/27 00:44:33;;;;;;;;;;;4.10;99.90;;;;;;5114687;28;19924;-80
2022/12/27 00:47:00;;;;;;;;;;;4.10;99.90;;;;;;5089767;28;19928;-80
2022/12/27 00:49:28;;;;;;;;;;;4.10;99.90;;;;;;5077650;28;19963;-80
2022/12/27 00:51:55;;;;;;;;;;;4.10;99.90;;;;;;5064392;28;20382;-80
2022/12/27 00:54:21;;;;;;;;;;;4.10;99.90;;;;;;5071540;28;19932;-80
2022/12/27 00:56:48;;;;;;;;;;;4.10;99.90;;;;;;5081921;28;19928;-80
2022/12/27 00:59:15;;;;;;;;;;;4.10;99.90;;;;;;5058804;28;19960;-80
2022/12/27 01:01:42;;;;;;;;;;;4.00;99.90;;;;;;5061643;28;19929;-80
2022/12/27 01:04:12;;;;;;;;;;;4.00;99.90;;;;;;5066758;28;19929;-80
2022/12/27 01:06:40;;;;;;;;;;;4.00;99.90;;;;;;5064628;28;20346;-80
2022/12/27 01:09:06;;;;;;;;;;;4.00;99.90;;;;;;5059989;28;19924;-80
2022/12/27 01:11:34;;;;;;;;;;;4.00;99.90;;;;;;5085817;28;20733;-79
2022/12/27 01:14:02;;;;;;;;;;;4.00;99.90;;;;;;5059547;28;20016;-79
2022/12/27 01:16:29;;;;;;;;;;;4.00;99.90;;;;;;5078988;28;19935;-79
2022/12/27 01:18:56;;;;;;;;;;;4.00;99.90;;;;;;5062992;28;19929;-80
2022/12/27 01:21:24;;;;;;;;;;;4.00;99.90;;;;;;5069973;28;20101;-80
2022/12/27 01:23:54;;;;;;;;;;;4.00;99.90;;;;;;5068523;28;19924;-80
2022/12/27 01:26:21;;;;;;;;;;;4.00;99.90;;;;;;5061167;28;19935;-79
2022/12/27 01:28:48;;;;;;;;;;;4.00;99.90;;;;;;5072598;28;19935;-79
2022/12/27 01:31:16;;;;;;;;;;;4.10;99.90;;;;;;5082918;28;19924;-79
2022/12/27 01:33:43;;;;;;;;;;;4.00;99.90;;;;;;5058403;28;19924;-79
2022/12/27 01:36:11;;;;;;;;;;;4.10;99.90;;;;;;5081214;28;19944;-78
2022/12/27 01:38:37;;;;;;;;;;;4.00;99.90;;;;;;5064009;28;20019;-79
2022/12/27 01:43:46;;;;;;;;;;;4.00;99.90;;;;;;5071526;28;20390;-79
2022/12/27 01:46:13;;;;;;;;;;;4.00;99.90;;;;;;5082675;28;19932;-79
2022/12/27 01:48:40;;;;;;;;;;;4.00;99.90;;;;;;5073715;28;19951;-79
2022/12/27 01:51:08;;;;;;;;;;;4.00;99.90;;;;;;5086732;28;19935;-79
2022/12/27 01:53:37;;;;;;;;;;;4.00;99.90;;;;;;5075165;28;20539;-79
2022/12/27 01:56:08;;;;;;;;;;;4.10;99.90;;;;;;5082373;28;19928;-79
2022/12/27 01:58:37;;;;;;;;;;;4.00;99.90;;;;;;5072636;28;20030;-79
2022/12/27 02:01:05;;;;;;;;;;;4.00;99.90;;;;;;5084899;28;19927;-78
2022/12/27 02:03:37;;;;;;;;;;;4.00;99.90;;;;;;5076758;28;19924;-79
2022/12/27 02:06:05;;;;;;;;;;;4.00;99.90;;;;;;5065226;28;20314;-78
2022/12/27 02:08:39;;;;;;;;;;;4.00;99.90;;;;;;5076846;28;19951;-79
2022/12/27 02:11:08;;;;;;;;;;;4.00;99.90;;;;;;5074249;28;19924;-79
2022/12/27 02:13:36;;;;;;;;;;;4.00;99.90;;;;;;5074976;28;19928;-79
2022/12/27 02:16:10;;;;;;;;;;;4.00;99.90;;;;;;5075466;28;19985;-79
2022/12/27 02:18:36;;;;;;;;;;;4.00;99.90;;;;;;5086471;28;19919;-79
2022/12/27 02:21:26;;;;;;;;;;;4.00;99.90;;;;;;5092849;28;19927;-79
2022/12/27 02:24:02;;;;;;;;;;;4.00;99.90;;;;;;5087849;28;19935;-79
2022/12/27 02:26:29;;;;;;;;;;;;;;;;;;5079365;28;19931;-79
2022/12/27 02:29:06;;;;;;;;;;;4.00;99.90;;;;;;5074041;28;19925;-79
2022/12/27 02:31:35;;;;;;;;;;;4.00;99.90;;;;;;5072775;28;20425;-79
2022/12/27 02:34:04;;;;;;;;;;;4.00;99.90;;;;;;5076658;28;19931;-79
2022/12/27 02:36:33;;;;;;;;;;;4.00;99.90;;;;;;5068857;28;19929;-79
2022/12/27 02:39:01;;;;;;;;;;;4.00;99.90;;;;;;5067408;28;19929;-79
2022/12/27 02:55:28;;;;;;;;;;;4.00;99.90;;;;;;5075827;28;19920;-79
2022/12/27 02:57:59;;;;;;;;;;;4.00;99.90;;;;;;5070609;28;20410;-79
2022/12/27 03:03:23;;;;;;;;;;;4.10;99.90;;;;;;5041498;28;20035;-79
2022/12/27 03:08:42;;;;;;;;;;;4.10;99.90;;;;;;5059469;28;19924;-79
2022/12/27 03:16:54;;;;;;;;;;;4.20;99.90;;;;;;5080734;28;19980;-79
2022/12/27 03:25:26;;;;;;;;;;;4.20;99.90;;;;;;5055417;28;20019;-79
2022/12/27 03:33:11;;;;;;;;;;;4.20;99.90;;;;;;5059828;28;19931;-79
2022/12/27 03:33:23;;;;;;;;;;;4.20;99.90;;;;;;5068095;28;19920;-79
2022/12/27 03:38:35;;;;;;;;;;;4.20;99.90;;;;;;5075190;28;20469;-79
2022/12/27 03:43:49;;;;;;;;;;;4.20;99.90;;;;;;5079852;28;19924;-79
2022/12/27 03:46:32;;;;;;;;;;;4.20;99.90;;;;;;5073354;28;19928;-79
2022/12/27 03:49:10;;;;;;;;;;;4.20;99.90;;;;;;5061646;28;20381;-79
2022/12/27 03:51:38;;;;;;;;;;;4.30;99.90;;;;;;5073602;28;19935;-79
2022/12/27 03:54:06;;;;;;;;;;;4.30;99.90;;;;;;5063966;28;19932;-79
2022/12/27 03:56:33;;;;;;;;;;;4.30;99.90;;;;;;5070542;28;19939;-79
2022/12/27 03:59:01;;;;;;;;;;;4.20;99.90;;;;;;5064882;28;19924;-79
2022/12/27 04:01:28;;;;;;;;;;;4.30;99.90;;;;;;5075553;28;19929;-79
2022/12/27 04:03:54;;;;;;;;;;;4.30;99.90;;;;;;5060692;28;19936;-79
2022/12/27 04:06:23;;;;;;;;;;;4.30;99.90;;;;;;5082565;28;19928;-79
2022/12/27 04:36:14;;;;;;;;;;;4.60;99.90;;;;;;5073283;28;19971;-79
2022/12/27 04:38:42;;;;;;;;;;;4.60;99.90;;;;;;5082689;28;19939;-79
2022/12/27 04:54:58;;;;;;;;;;;4.90;99.90;;;;;;5074112;28;19920;-79
2022/12/27 04:57:25;;;;;;;;;;;5.00;99.90;;;;;;5062140;28;19937;-79
2022/12/27 05:02:36;;;;;;;;;;;5.80;99.90;;;;;;5086643;28;19942;-79
2022/12/27 05:05:03;;;;;;;;;;;5.10;99.90;;;;;;5069790;28;20689;-79
2022/12/27 05:15:44;;;;;;;;;;;5.10;99.90;;;;;;5057198;28;19970;-79
2022/12/27 05:18:11;;;;;;;;;;;5.20;99.90;;;;;;5074008;28;19938;-79
2022/12/27 05:20:37;;;;;;;;;;;5.10;99.90;;;;;;5073731;28;19928;-79
2022/12/27 05:25:50;;;;;;;;;;;5.00;99.90;;;;;;5057146;28;19925;-79
2022/12/27 05:28:17;;;;;;;;;;;5.00;99.90;;;;;;5080715;28;19935;-79
2022/12/27 05:30:43;;;;;;;;;;;5.00;99.90;;;;;;5098390;28;20412;-79
2022/12/27 05:33:11;;;;;;;;;;;5.00;99.90;;;;;;5078438;28;19935;-79
2022/12/27 05:35:38;;;;;;;;;;;5.00;99.90;;;;;;5080777;28;19924;-79
2022/12/27 05:38:05;;;;;;;;;;;5.10;99.90;;;;;;5058867;28;20305;-79
2022/12/27 05:40:32;;;;;;;;;;;5.80;99.90;;;;;;5071738;28;19940;-79
2022/12/27 05:43:00;;;;;;;;;;;5.10;99.90;;;;;;5064775;28;20669;-79
2022/12/27 05:45:27;;;;;;;;;;;5.10;99.90;;;;;;5084163;28;19928;-79
2022/12/27 05:47:56;;;;;;;;;;;5.10;99.90;;;;;;5078201;28;19928;-79
2022/12/27 05:50:23;;;;;;;;;;;5.10;99.90;;;;;;5077303;28;20410;-80
2022/12/27 05:52:50;;;;;;;;;;;5.10;99.90;;;;;;5080270;28;19928;-79
2022/12/27 05:55:17;;;;;;;;;;;5.00;99.90;;;;;;5072352;28;20394;-79
2022/12/27 05:57:44;;;;;;;;;;;5.00;99.90;;;;;;5077330;28;19925;-78
2022/12/27 06:00:12;;;;;;;;;;;5.00;99.90;;;;;;5085983;28;19928;-79
2022/12/27 06:02:40;;;;;;;;;;;5.00;99.90;;;;;;5074224;28;19925;-79
2022/12/27 06:05:08;;;;;;;;;;;4.90;99.90;;;;;;5069523;28;19924;-80
2022/12/27 06:07:35;;;;;;;;;;;4.90;99.90;;;;;;5069611;28;19938;-80
2022/12/27 06:10:01;;;;;;;;;;;4.80;99.90;;;;;;5086715;28;19931;-80
2022/12/27 06:12:28;;;;;;;;;;;4.80;99.90;;;;;;5087610;28;19924;-80
2022/12/27 06:14:55;;;;;;;;;;;4.70;99.90;;;;;;5068019;28;19932;-79
2022/12/27 06:17:23;;;;;;;;;;;4.70;99.90;;;;;;5073682;28;19929;-79
2022/12/27 06:19:49;;;;;;;;;;;4.70;99.90;;;;;;5078855;28;20393;-79
2022/12/27 06:22:16;;;;;;;;;;;4.70;99.90;;;;;;5081561;28;19935;-80
2022/12/27 06:24:43;;;;;;;;;;;4.60;99.90;;;;;;5069320;28;20019;-79
2022/12/27 06:27:10;;;;;;;;;;;4.60;99.90;;;;;;5072063;28;19928;-79
2022/12/27 06:29:36;;;;;;;;;;;4.60;99.90;;;;;;5073083;28;20036;-80
2022/12/27 06:32:03;;;;;;;;;;;4.60;99.90;;;;;;5077209;28;19985;-79
2022/12/27 06:34:31;;;;;;;;;;;4.50;99.90;;;;;;5068737;28;19926;-80
2022/12/27 06:36:58;;;;;;;;;;;4.50;99.90;;;;;;5081419;28;19999;-80
2022/12/27 06:39:25;;;;;;;;;;;4.50;99.90;;;;;;5078416;28;19927;-81
2022/12/27 06:41:54;;;;;;;;;;;4.50;99.90;;;;;;5075366;28;19928;-80
2022/12/27 06:44:20;;;;;;;;;;;4.50;99.90;;;;;;5078977;28;20294;-80
2022/12/27 06:46:48;;;;;;;;;;;4.40;99.90;;;;;;5080063;28;20019;-80
2022/12/27 06:49:15;;;;;;;;;;;4.40;99.90;;;;;;5080274;28;19931;-80
2022/12/27 06:51:43;;;;;;;;;;;4.70;99.90;;;;;;5070018;28;19928;-80
2022/12/27 06:54:10;;;;;;;;;;;4.40;99.90;;;;;;5073673;28;19928;-80
2022/12/27 06:56:37;;;;;;;;;;;4.40;99.90;;;;;;5065005;28;19928;-81
2022/12/27 06:59:03;;;;;;;;;;;4.40;99.90;;;;;;5085579;28;19954;-79
2022/12/27 07:01:30;;;;;;;;;;;4.40;99.90;;;;;;5067447;28;19928;-79
2022/12/27 07:03:58;;;;;;;;;;;4.40;99.90;;;;;;5079341;28;19929;-80
2022/12/27 07:06:26;;;;;;;;;;;4.30;99.90;;;;;;5088218;28;19925;-79
2022/12/27 07:08:54;;;;;;;;;;;4.30;99.90;;;;;;5078097;28;19939;-79
2022/12/27 07:11:21;;;;;;;;;;;4.30;99.90;;;;;;5073258;28;19932;-79
2022/12/27 07:13:49;;;;;;;;;;;4.30;99.90;;;;;;5082370;28;20361;-79
2022/12/27 07:16:17;;;;;;;;;;;4.30;99.90;;;;;;5070314;28;20008;-79
2022/12/27 07:18:45;;;;;;;;;;;4.30;99.90;;;;;;5073856;28;20027;-80
2022/12/27 07:21:13;;;;;;;;;;;4.30;99.90;;;;;;5063501;28;19925;-79
2022/12/27 07:23:39;;;;;;;;;;;4.30;99.90;;;;;;5085538;28;19928;-80
2022/12/27 07:26:09;;;;;;;;;;;4.20;99.90;;;;;;5078802;28;20328;-79
2022/12/27 07:28:36;;;;;;;;;;;4.20;99.90;;;;;;5097731;28;19932;-82
2022/12/27 07:31:06;;;;;;;;;;;4.20;99.90;;;;;;5078087;28;19929;-81
2022/12/27 07:33:33;;;;;;;;;;;4.20;99.90;;;;;;5066082;28;19932;-82
2022/12/27 07:36:01;;;;;;;;;;;4.20;99.90;;;;;;5065944;28;19936;-83
2022/12/27 07:38:29;;;;;;;;;;;4.20;99.90;;;;;;5075409;28;19939;-81
2022/12/27 07:40:58;;;;;;;;;;;4.20;99.90;;;;;;5084951;28;19931;-81
2022/12/27 07:43:26;;;;;;;;;;;4.20;99.90;;;;;;5085562;28;19935;-82
2022/12/27 07:45:53;;;;;;;;;;;4.20;99.90;;;;;;5079010;28;19929;-82
2022/12/27 07:48:19;;;;;;;;;;;4.20;99.90;;;;;;5101127;28;19924;-83
2022/12/27 07:50:53;;;;;;;;;;;4.20;99.90;;;;;;5080962;28;19939;-82
2022/12/27 07:53:20;;;;;;;;;;;4.20;99.90;;;;;;5091002;28;19931;-82
2022/12/27 07:55:47;;;;;;;;;;;4.20;99.90;;;;;;5073871;28;19956;-82
2022/12/27 07:58:14;;;;;;;;;;;4.20;99.90;;;;;;5075501;28;19925;-82
2022/12/27 08:00:42;;;;;;;;;;;4.20;99.90;;;;;;5082859;28;19929;-82
2022/12/27 08:03:09;;;;;;;;;;;4.20;99.90;;;;;;5072175;28;19939;-83
2022/12/27 08:05:36;;;;;;;;;;;4.20;99.90;;;;;;5079596;28;19928;-83
2022/12/27 08:08:02;;;;;;;;;;;4.20;99.90;;;;;;5079792;28;19935;-81
2022/12/27 08:10:32;;;;;;;;;;;4.40;99.90;;;;;;5076562;28;20533;-82
2022/12/27 08:12:59;;;;;;;;;;;4.30;99.90;;;;;;5065395;28;19998;-80
2022/12/27 08:15:26;;;;;;;;;;;4.40;99.90;;;;;;5080404;28;19938;-81
2022/12/27 08:17:54;;;;;;;;;;;4.50;99.90;;;;;;5068180;28;19930;-81
2022/12/27 08:20:21;;;;;;;;;;;4.50;99.90;;;;;;5073045;28;19959;-81
2022/12/27 08:22:48;;;;;;;;;;;4.60;99.90;;;;;;5077256;28;19967;-80
2022/12/27 08:25:15;;;;;;;;;;;4.70;99.90;;;;;;5072238;28;20050;-82
2022/12/27 08:27:43;;;;;;;;;;;4.80;99.90;;;;;;5058795;28;19951;-80
2022/12/27 08:30:11;;;;;;;;;;;4.90;99.90;;;;;;5073820;28;19974;-80
2022/12/27 08:32:37;;;;;;;;;;;5.00;99.90;;;;;;5059708;28;19982;-80
2022/12/27 08:35:06;;;;;;;;;;;5.10;99.90;;;;;;5070225;28;20429;-80
2022/12/27 08:37:33;;;;;;;;;;;5.20;99.90;;;;;;5065681;28;19966;-80
2022/12/27 08:39:59;;;;;;;;;;;5.20;99.90;;;;;;5077695;28;20019;-82
2022/12/27 08:42:28;;;;;;;;;;;5.30;99.90;;;;;;5069818;28;19928;-80
2022/12/27 08:44:54;;;;;;;;;;;5.40;99.90;;;;;;5049584;28;21476;-80
2022/12/27 08:47:21;;;;;;;;;;;5.40;99.90;;;;;;5068698;28;19924;-80
2022/12/27 08:49:48;;;;;;;;;;;5.40;99.90;;;;;;5059333;28;19929;-83
2022/12/27 08:52:16;;;;;;;;;;;5.40;99.90;;;;;;5071142;28;19929;-82
2022/12/27 08:54:43;;;;;;;;;;;5.40;99.90;;;;;;5080316;28;19932;-82
2022/12/27 08:57:09;;;;;;;;;;;5.50;99.90;;;;;;5063057;28;19990;-83
2022/12/27 08:59:36;;;;;;;;;;;5.50;99.90;;;;;;5081418;28;19932;-82
2022/12/27 09:02:03;;;;;;;;;;;5.50;99.90;;;;;;5055326;28;19931;-81
2022/12/27 09:04:31;;;;;;;;;;;5.50;99.90;;;;;;5065141;28;19928;-83
2022/12/27 09:06:58;;;;;;;;;;;5.50;99.90;;;;;;5054326;28;19932;-83
2022/12/27 09:09:29;;;;;;;;;;;5.60;99.90;;;;;;5075226;28;19935;-82
2022/12/27 09:11:55;;;;;;;;;;;5.70;99.90;;;;;;5064035;28;20305;-84
2022/12/27 09:14:22;;;;;;;;;;;5.80;99.90;;;;;;5072020;28;19928;-82
2022/12/27 09:16:49;;;;;;;;;;;5.90;99.90;;;;;;5071690;28;19978;-82
2022/12/27 09:19:15;;;;;;;;;;;5.90;99.90;;;;;;5068075;28;19979;-82
2022/12/27 09:21:42;;;;;;;;;;;6.00;99.90;;;;;;5071589;28;19928;-82
2022/12/27 09:24:10;;;;;;;;;;;6.10;99.90;;;;;;5077285;28;19938;-79
2022/12/27 09:26:38;;;;;;;;;;;6.20;99.90;;;;;;5083946;28;19935;-81
2022/12/27 09:29:05;;;;;;;;;;;6.20;99.90;;;;;;5061199;28;19940;-81
2022/12/27 09:31:32;;;;;;;;;;;6.40;99.90;;;;;;5061330;28;20006;-81
2022/12/27 09:33:59;;;;;;;;;;;6.50;99.90;;;;;;5059972;28;20028;-81
2022/12/27 09:36:29;;;;;;;;;;;6.60;99.90;;;;;;5068729;28;19964;-81
2022/12/27 09:38:57;;;;;;;;;;;6.60;99.90;;;;;;5081406;28;20049;-81
2022/12/27 09:41:35;;;;;;;;;;;6.60;99.90;;;;;;5055468;28;19928;-81
2022/12/27 09:44:05;;;;;;;;;;;6.60;99.90;;;;;;5068301;28;19935;-80
2022/12/27 09:46:33;;;;;;;;;;;6.80;99.90;;;;;;5069344;28;20457;-80
2022/12/27 09:49:00;;;;;;;;;;;6.90;99.90;;;;;;5061264;28;20003;-79
2022/12/27 09:51:31;;;;;;;;;;;7.00;99.90;;;;;;5070244;28;20390;-79
2022/12/27 09:54:04;;;;;;;;;;;7.10;99.90;;;;;;5077341;28;19924;-79
2022/12/27 09:56:33;;;;;;;;;;;7.20;99.90;;;;;;5085907;28;19932;-85
2022/12/27 09:59:05;;;;;;;;;;;6.40;99.90;;;;;;5088881;28;19939;-82
2022/12/27 10:01:34;;;;;;;;;;;7.40;99.90;;;;;;5080148;28;19959;-85
2022/12/27 10:04:01;;;;;;;;;;;7.50;99.90;;;;;;5091845;28;19984;-85
2022/12/27 10:06:40;;;;;;;;;;;7.70;99.90;;;;;;5092380;28;19923;-84
2022/12/27 10:09:31;;;;;;;;;;;7.90;99.90;;;;;;5086644;28;19921;-85
2022/12/27 10:12:00;;;;;;;;;;;7.90;99.90;;;;;;5092795;28;19920;-85
2022/12/27 10:17:11;;;;;;;;;;;8.10;99.90;;;;;;5029712;28;19956;-73
2022/12/27 10:19:43;;;;;;;;;;;8.20;99.90;;;;;;5021723;28;19998;-73
2022/12/27 10:22:15;;;;;;;;;;;8.40;99.90;;;;;;5019628;28;19940;-73
2022/12/27 10:24:44;;;;;;;;;;;8.50;99.90;;;;;;5020459;28;19928;-73
2022/12/27 10:27:12;;;;;;;;;;;9.00;99.90;;;;;;5039993;28;19936;-73
2022/12/27 10:29:39;;;;;;;;;;;8.70;99.90;;;;;;5035627;28;19956;-73
2022/12/27 10:32:08;;;;;;;;;;;8.80;99.90;;;;;;5024136;28;19963;-73
2022/12/27 10:34:35;;;;;;;;;;;8.90;99.90;;;;;;5038721;28;20614;-73
2022/12/27 10:37:01;;;;;;;;;;;9.10;99.90;;;;;;5036318;28;19929;-74
2022/12/27 10:39:35;;;;;;;;;;;9.20;99.90;;;;;;5041310;28;19925;-74
2022/12/27 10:42:04;;;;;;;;;;;9.40;99.90;;;;;;5035354;28;19928;-73
2022/12/27 10:44:31;;;;;;;;;;;9.60;99.90;;;;;;5035559;28;20015;-73
2022/12/27 10:46:59;;;;;;;;;;;9.70;99.90;;;;;;5045857;28;19929;-74
2022/12/27 10:49:29;;;;;;;;;;;9.90;99.90;;;;;;5041854;28;19997;-72
2022/12/27 10:51:56;;;;;;;;;;;10.10;99.90;;;;;;5043283;28;19929;-75
2022/12/27 10:54:24;;;;;;;;;;;10.10;99.90;;;;;;5042512;28;19937;-75
2022/12/27 10:56:52;;;;;;;;;;;10.20;99.90;;;;;;5037724;28;20728;-74
2022/12/27 10:59:19;;;;;;;;;;;10.30;99.90;;;;;;5047177;28;19928;-74
2022/12/27 11:01:48;;;;;;;;;;;10.30;99.90;;;;;;5019153;28;20303;-75
2022/12/27 11:04:17;;;;;;;;;;;10.40;99.90;;;;;;5035602;28;20261;-74
2022/12/27 11:06:46;;;;;;;;;;;9.90;99.90;;;;;;5026190;28;20783;-74
2022/12/27 11:09:34;;;;;;;;;;;10.70;99.90;;;;;;5033938;28;19948;-74
2022/12/27 11:12:16;;;;;;;;;;;10.80;99.90;;;;;;5035680;28;19932;-74
2022/12/27 11:14:54;;;;;;;;;;;11.00;99.90;;;;;;5041939;28;19928;-74
2022/12/27 11:17:21;;;;;;;;;;;11.10;99.90;;;;;;5028822;28;20023;-74
2022/12/27 11:19:49;;;;;;;;;;;11.10;99.90;;;;;;5046596;28;19929;-72
2022/12/27 11:22:17;;;;;;;;;;;11.10;99.90;;;;;;5038205;28;20600;-75
2022/12/27 11:24:45;;;;;;;;;;;11.10;99.90;;;;;;5041471;28;19940;-75
2022/12/27 11:27:19;;;;;;;;;;;11.20;99.90;;;;;;5034027;28;19925;-74
2022/12/27 11:29:45;;;;;;;;;;;11.30;99.90;;;;;;5040288;28;20304;-75
2022/12/27 11:32:12;;;;;;;;;;;11.40;99.90;;;;;;5022262;28;19932;-73
2022/12/27 11:34:39;;;;;;;;;;;11.50;99.90;;;;;;5040203;28;20271;-73
2022/12/27 11:37:11;;;;;;;;;;;11.60;99.90;;;;;;5042474;28;19936;-75
2022/12/27 11:39:44;;;;;;;;;;;11.50;99.90;;;;;;5041355;28;20039;-73
2022/12/27 11:42:16;;;;;;;;;;;11.40;99.90;;;;;;5026683;28;19929;-75
2022/12/27 11:44:45;;;;;;;;;;;11.30;99.90;;;;;;5023774;28;19972;-72
2022/12/27 11:47:13;;;;;;;;;;;11.40;99.90;;;;;;5041059;28;19925;-75
2022/12/27 11:49:43;;;;;;;;;;;11.50;99.90;;;;;;5034952;28;19929;-75
2022/12/27 11:52:43;;;;;;;;;;;11.60;99.90;;;;;;5030787;28;19935;-74
2022/12/27 11:55:28;;;;;;;;;;;11.70;99.90;;;;;;4990343;28;19936;-74
2022/12/27 11:58:07;;;;;;;;;;;11.60;99.90;;;;;;4976656;28;20447;-75
2022/12/27 12:00:37;;;;;;;;;;;11.30;99.90;;;;;;5015717;28;20024;-75
2022/12/27 12:03:15;;;;;;;;;;;11.00;99.90;;;;;;5022520;28;20021;-74
2022/12/27 12:05:53;;;;;;;;;;;10.70;99.90;;;;;;5018410;28;19941;-74
2022/12/27 12:08:35;;;;;;;;;;;10.40;99.90;;;;;;5030086;28;19964;-74
2022/12/27 12:11:09;;;;;;;;;;;10.20;99.90;;;;;;4998920;28;20393;-73
2022/12/27 12:13:52;;;;;;;;;;;9.90;99.90;;;;;;5029773;28;20339;-73
2022/12/27 12:16:44;;;;;;;;;;;9.70;99.90;;;;;;5016247;28;19929;-73
2022/12/27 12:19:19;;;;;;;;;;;9.60;99.90;;;;;;5013553;28;20022;-72
2022/12/27 12:21:53;;;;;;;;;;;9.50;99.90;;;;;;5025305;28;19929;-73
2022/12/27 12:24:27;;;;;;;;;;;9.50;99.90;;;;;;5021549;28;20055;-73
2022/12/27 12:27:03;;;;;;;;;;;9.90;99.90;;;;;;5023969;28;19983;-74
2022/12/27 12:29:48;;;;;;;;;;;9.50;99.90;;;;;;5032665;28;19928;-73
2022/12/27 12:32:30;;;;;;;;;;;9.40;99.90;;;;;;5024961;28;19940;-73
2022/12/27 12:35:06;;;;;;;;;;;9.40;99.90;;;;;;5024575;28;19940;-73
2022/12/27 12:37:41;;;;;;;;;;;9.30;99.90;;;;;;5039844;28;20479;-74
2022/12/27 12:40:15;;;;;;;;;;;9.30;99.90;;;;;;5033845;28;19966;-73
2022/12/27 12:42:48;;;;;;;;;;;9.30;99.90;;;;;;5026508;28;19929;-74
2022/12/27 12:45:20;;;;;;;;;;;9.20;99.90;;;;;;5033013;28;19929;-74
2022/12/27 12:47:58;;;;;;;;;;;9.20;99.90;;;;;;5020401;28;19977;-74
2022/12/27 12:50:29;;;;;;;;;;;9.20;99.90;;;;;;5032661;28;19940;-74
2022/12/27 12:53:17;;;;;;;;;;;9.20;99.90;;;;;;5033569;28;19952;-74
2022/12/27 12:55:49;;;;;;;;;;;9.20;99.90;;;;;;5026798;28;19929;-74
2022/12/27 12:58:22;;;;;;;;;;;9.30;99.90;;;;;;5028220;28;20370;-74
2022/12/27 13:00:56;;;;;;;;;;;9.30;99.90;;;;;;5033291;28;19929;-74
2022/12/27 13:03:47;;;;;;;;;;;9.30;99.90;;;;;;5028974;28;19936;-74
2022/12/27 13:06:19;;;;;;;;;;;9.30;99.90;;;;;;5016877;28;19935;-74
2022/12/27 13:08:51;;;;;;;;;;;9.30;99.90;;;;;;5052276;28;19947;-74
2022/12/27 13:11:24;;;;;;;;;;;9.20;99.90;;;;;;5044921;28;20016;-73
2022/12/27 13:14:01;;;;;;;;;;;9.20;99.90;;;;;;5046019;28;19955;-74
2022/12/27 13:16:36;;;;;;;;;;;9.10;99.90;;;;;;5042827;28;19936;-75
2022/12/27 13:19:11;;;;;;;;;;;9.00;99.90;;;;;;5033833;28;20360;-74
2022/12/27 13:21:46;;;;;;;;;;;8.90;99.90;;;;;;5037019;28;19991;-74
2022/12/27 13:24:21;;;;;;;;;;;8.70;99.90;;;;;;5032733;28;19935;-74
2022/12/27 13:26:52;;;;;;;;;;;8.80;99.90;;;;;;5037353;28;19925;-74
2022/12/27 13:29:29;;;;;;;;;;;8.70;99.90;;;;;;5042024;28;19947;-74
2022/12/27 13:32:00;;;;;;;;;;;8.70;99.90;;;;;;5031377;28;20020;-74
2022/12/27 13:34:34;;;;;;;;;;;8.70;99.90;;;;;;5024561;28;20302;-74
2022/12/27 13:37:13;;;;;;;;;;;8.70;99.90;;;;;;5029068;28;19944;-74
2022/12/27 13:39:46;;;;;;;;;;;8.60;99.90;;;;;;5026573;28;19925;-75
2022/12/27 13:42:29;;;;;;;;;;;8.60;99.90;;;;;;5033308;28;20006;-74
2022/12/27 13:45:02;;;;;;;;;;;8.60;99.90;;;;;;5036857;28;19956;-74
2022/12/27 13:47:48;;;;;;;;;;;8.60;99.90;;;;;;5029980;28;19925;-75
2022/12/27 13:50:35;;;;;;;;;;;8.50;99.90;;;;;;5044087;28;19929;-74
2022/12/27 13:53:13;;;;;;;;;;;8.50;99.90;;;;;;5024797;28;19933;-74
2022/12/27 13:55:44;;;;;;;;;;;8.40;99.90;;;;;;5032150;28;19929;-75
2022/12/27 13:58:32;;;;;;;;;;;8.40;99.90;;;;;;5036365;28;19940;-74
2022/12/27 14:01:04;;;;;;;;;;;8.40;99.90;;;;;;5029953;28;19941;-74
2022/12/27 14:03:54;;;;;;;;;;;8.30;99.90;;;;;;5028501;28;19936;-74
2022/12/27 14:06:34;;;;;;;;;;;8.30;99.90;;;;;;5037568;28;19938;-74
2022/12/27 14:09:20;;;;;;;;;;;8.30;99.90;;;;;;5029436;28;19933;-73
2022/12/27 14:11:53;;;;;;;;;;;8.20;99.90;;;;;;5035595;28;20664;-74
2022/12/27 14:17:10;;;;;;;;;;;8.20;99.90;;;;;;5129486;22;20401;-74
2022/12/27 14:19:55;;;;;;;;;;;8.20;99.90;;;;;;5041017;28;19929;-75
2022/12/27 14:22:40;;;;;;;;;;;8.30;99.90;;;;;;5030363;28;19933;-75
2022/12/27 14:25:24;;;;;;;;;;;8.30;99.90;;;;;;5028520;28;20023;-75
2022/12/27 14:28:24;;;;;;;;;;;8.30;99.90;;;;;;5025309;28;19960;-73
2022/12/27 14:31:03;;;;;;;;;;;8.30;99.90;;;;;;5039050;22;20018;-76
2022/12/27 14:33:42;;;;;;;;;;;8.90;99.90;;;;;;5038051;28;20164;-74
2022/12/27 14:36:26;;;;;;;;;;;8.20;99.90;;;;;;5022651;28;19925;-74
2022/12/27 14:39:09;;;;;;;;;;;8.20;99.90;;;;;;5045200;28;19949;-75
2022/12/27 14:41:55;;;;;;;;;;;8.20;99.90;;;;;;5041423;28;20079;-75
2022/12/27 14:44:36;;;;;;;;;;;8.10;99.90;;;;;;5026438;28;20039;-75
2022/12/27 14:47:20;;;;;;;;;;;8.00;99.90;;;;;;5031795;28;19929;-76
2022/12/27 14:50:05;;;;;;;;;;;7.90;99.90;;;;;;5026779;28;19931;-75
2022/12/27 14:52:59;;;;;;;;;;;7.90;99.90;;;;;;5043551;28;19951;-76
2022/12/27 14:55:34;;;;;;;;;;;7.80;99.90;;;;;;4979348;28;20570;-75
2022/12/27 14:58:14;;;;;;;;;;;7.80;99.90;;;;;;5047660;28;20301;-75
2022/12/27 15:01:03;;;;;;;;;;;7.60;99.90;;;;;;5043882;28;19929;-76
2022/12/27 15:03:37;;;;;;;;;;;7.60;99.90;;;;;;5042216;28;19928;-75
2022/12/27 15:06:09;;;;;;;;;;;7.50;99.90;;;;;;5050410;28;20198;-75
2022/12/27 15:08:42;;;;;;;;;;;7.50;99.90;;;;;;5040411;28;19929;-76
2022/12/27 15:11:19;;;;;;;;;;;7.40;99.90;;;;;;5043636;28;20336;-76
2022/12/27 15:13:54;;;;;;;;;;;7.40;99.90;;;;;;5029914;28;19935;-76
2022/12/27 15:16:27;;;;;;;;;;;7.30;99.90;;;;;;5035421;28;19948;-76
2022/12/27 15:19:00;;;;;;;;;;;7.70;99.90;;;;;;5043743;28;20009;-75
2022/12/27 15:21:45;;;;;;;;;;;7.30;99.90;;;;;;5052429;28;19925;-76
2022/12/27 15:24:19;;;;;;;;;;;7.20;99.90;;;;;;5037102;28;20011;-76
2022/12/27 15:26:51;;;;;;;;;;;7.40;99.90;;;;;;5022070;28;19925;-76
2022/12/27 15:29:22;;;;;;;;;;;7.20;99.90;;;;;;5030737;28;19948;-76
2022/12/27 15:31:54;;;;;;;;;;;7.10;99.90;;;;;;5042356;28;20467;-75
2022/12/27 15:34:30;;;;;;;;;;;7.10;99.90;;;;;;5038301;28;19932;-75
2022/12/27 15:36:57;;;;;;;;;;;7.10;99.90;;;;;;5025183;28;19935;-75
2022/12/27 15:39:42;;;;;;;;;;;7.10;99.90;;;;;;5044663;28;20459;-76
2022/12/27 15:42:24;;;;;;;;;;;7.10;99.90;;;;;;5044908;28;19976;-76
2022/12/27 15:44:56;;;;;;;;;;;7.00;99.90;;;;;;5042514;28;20000;-75
2022/12/27 15:47:37;;;;;;;;;;;7.00;99.90;;;;;;5039651;28;20216;-76
2022/12/27 15:50:19;;;;;;;;;;;7.00;99.90;;;;;;5035807;28;19975;-75
2022/12/27 15:52:58;;;;;;;;;;;7.00;99.90;;;;;;5028369;28;20270;-76
2022/12/27 15:55:35;;;;;;;;;;;7.00;99.90;;;;;;5040890;28;19991;-76
2022/12/27 15:58:14;;;;;;;;;;;7.00;99.90;;;;;;5043207;28;19925;-75
2022/12/27 16:00:41;;;;;;;;;;;7.10;99.90;;;;;;5017891;28;19929;-77
2022/12/27 16:03:23;;;;;;;;;;;7.10;99.90;;;;;;5019331;28;19931;-76
2022/12/27 16:05:51;;;;;;;;;;;7.20;99.90;;;;;;5035622;28;19929;-75
2022/12/27 16:08:29;;;;;;;;;;;7.20;99.90;;;;;;5040026;28;19931;-75
2022/12/27 16:10:57;;;;;;;;;;;7.20;99.90;;;;;;5016554;28;19929;-76
2022/12/27 16:13:36;;;;;;;;;;;7.20;99.90;;;;;;5016440;28;19929;-75
2022/12/27 16:16:03;;;;;;;;;;;7.20;99.90;;;;;;5025286;28;20381;-75
2022/12/27 16:18:59;;;;;;;;;;;7.10;99.90;;;;;;5036988;28;19941;-75
2022/12/27 16:21:26;;;;;;;;;;;7.10;99.90;;;;;;5030906;28;19952;-77
2022/12/27 16:23:55;;;;;;;;;;;7.10;99.90;;;;;;5037920;28;19967;-77
2022/12/27 16:26:24;;;;;;;;;;;7.00;99.90;;;;;;5036138;28;19932;-75
2022/12/27 16:28:55;;;;;;;;;;;7.00;99.90;;;;;;5029950;28;19932;-75
2022/12/27 16:31:23;;;;;;;;;;;7.00;99.90;;;;;;5036794;28;20341;-76
2022/12/27 16:33:50;;;;;;;;;;;6.90;99.90;;;;;;5038755;28;20003;-77